Stinson Municipal Airport
KSSF : rendu visible

Aérodrome :











RETROUVEZ-NOUS SUR...

 
LOGIN :

S'inscrire | Disclaimer

   EN    FR    IT 

 









Légende :    VFR   VFR Marginal   IFR   IFR Intensif   IFR Très Intensif
Visi : 
Plafond : 
>= 8 km
>= 3000ft
5 à 8 km
1000 à 3000 ft
1500m à 5 km
500 à 1000 ft
800 à 1500m
200 à 500 ft
< 800m
< 200 ft
Symboles :   Orages  Brouillard  Fortes neiges  Fortes précipitations  Vent > 20 kt






- Altitude de l'aérodrome : 577 ft


KSSF - Stinson Municipal

DERNIER METAR :
  • 251053Z AUTO 00000KT 10SM BKN060 06/04 A3008 RMK AO2 SLP186 T00610039

METARs EXPIRÉS :
  • 250953Z AUTO 00000KT 10SM FEW060 06/04 A3009 RMK AO2 SLP189 T00560039
  • 250853Z AUTO 00000KT 10SM FEW060 06/04 A3010 RMK AO2 SLP194 T00560039 55006

TAF KSSF
Valide du 25 à 12h jusqu'au 26 à 12h UTC


251124Z 2512/2612 VRB02KT P6SM SCT060 BKN250
FM251600 16009KT P6SM BKN060 OVC250
FM252100 16008KT P6SM BKN025 OVC050
FM260000 14006KT P6SM OVC015
FM260400 14003KT 6SM -DZ VCSH OVC007
FM260700 VRB02KT 1SM -DZ BR OVC004



MET'MAP, la Météo Aéronautique d'un coup d'oeil ! - Copyright ORBIFLY Décembre 2007 - Disclaimer

ORBIFLY MET'MAP TEAM :

Programmation & Développement : Alexandra Zaïnal
Sur une idée originale de : Baudouin d'Aumeries
Assistance à la programmation : Marc-Olivier Méhu
Soutien technique & logistique : Manuel Goepfert

Contact : metmap@orbifly.com




SOURCES & CREDITS :

   NOAA       Earth
Advisory